Time;durP1;ratioP1;P1;durP2;ratioP2;P2;SDS_P1;SDS_P2;PMS_P1;PMS_P2;Temp;Humidity;BMP_temperature;BMP_pressure;BME280_temperature;BME280_humidity;BME280_pressure;Samples;Min_cycle;Max_cycle;Signal;HPM_P1;HPM_P2
2023/09/20 03:32:34;;;;;;;8.13;2.10;;;13.70;99.90;;;;;;5145388;23;20501;-65
2023/09/20 03:35:01;;;;;;;2.10;1.73;;;13.80;99.90;;;;;;5011945;28;20845;-65
2023/09/20 03:37:32;;;;;;;1.80;1.40;;;13.80;99.90;;;;;;5013458;28;20540;-65
2023/09/20 03:39:59;;;;;;;2.57;1.70;;;13.90;99.90;;;;;;5013495;28;20550;-65
2023/09/20 03:42:26;;;;;;;1.73;1.47;;;13.90;99.90;;;;;;5007475;28;20525;-65
2023/09/20 03:44:52;;;;;;;1.87;1.50;;;13.90;99.90;;;;;;5003232;28;20554;-64
2023/09/20 03:47:19;;;;;;;1.50;1.40;;;13.90;99.90;;;;;;4999634;28;20557;-65
2023/09/20 03:49:51;;;;;;;2.13;1.80;;;13.90;99.90;;;;;;4999999;28;20524;-64
2023/09/20 03:52:18;;;;;;;2.50;1.90;;;13.80;99.90;;;;;;4993680;28;20478;-65
2023/09/20 03:54:50;;;;;;;2.40;1.80;;;13.80;99.90;;;;;;4993671;28;20465;-64
2023/09/20 03:57:16;;;;;;;1.70;1.50;;;13.90;99.90;;;;;;5005853;28;20496;-65
2023/09/20 03:59:43;;;;;;;2.60;1.90;;;13.90;99.90;;;;;;4994348;28;20470;-64
2023/09/20 04:02:13;;;;;;;3.50;1.90;;;13.80;99.90;;;;;;4993196;28;20490;-64
2023/09/20 04:04:40;;;;;;;2.73;1.30;;;13.80;99.90;;;;;;5005533;28;20465;-64
2023/09/20 04:07:09;;;;;;;2.23;1.63;;;13.70;99.90;;;;;;4993943;28;20938;-65
2023/09/20 04:09:36;;;;;;;3.10;1.70;;;13.70;99.90;;;;;;4993518;28;20579;-65
2023/09/20 04:12:03;;;;;;;1.97;1.80;;;13.60;99.90;;;;;;4993232;28;20485;-65
2023/09/20 04:14:29;;;;;;;2.27;1.57;;;13.60;99.90;;;;;;4993087;28;20887;-64
2023/09/20 04:16:55;;;;;;;2.00;1.70;;;13.60;99.90;;;;;;4993141;28;20460;-65
2023/09/20 04:19:22;;;;;;;2.20;2.00;;;13.60;99.90;;;;;;4993572;28;20466;-65
2023/09/20 04:21:50;;;;;;;1.40;1.30;;;13.50;99.90;;;;;;4993570;28;20486;-65
2023/09/20 04:24:18;;;;;;;1.63;1.53;;;13.50;99.90;;;;;;4996977;28;20528;-65
2023/09/20 04:26:44;;;;;;;2.43;1.70;;;13.40;99.90;;;;;;5002066;28;20486;-64
2023/09/20 04:29:11;;;;;;;2.43;1.70;;;13.40;99.90;;;;;;5004036;28;20487;-65
2023/09/20 04:31:40;;;;;;;2.33;1.80;;;13.40;99.90;;;;;;5007649;28;20492;-65
2023/09/20 04:34:07;;;;;;;1.70;1.60;;;13.40;99.90;;;;;;5006021;28;20548;-65
2023/09/20 04:36:34;;;;;;;2.00;1.57;;;13.40;99.90;;;;;;4993442;28;20959;-65
2023/09/20 04:39:01;;;;;;;2.03;1.43;;;13.40;99.90;;;;;;4993422;28;20958;-65
2023/09/20 04:41:29;;;;;;;2.00;1.80;;;13.40;99.90;;;;;;4993388;28;20482;-65
2023/09/20 04:43:55;;;;;;;1.90;1.70;;;13.40;99.90;;;;;;4993194;28;20492;-64
2023/09/20 04:46:23;;;;;;;2.83;1.80;;;13.40;99.90;;;;;;4993650;28;20490;-65
2023/09/20 04:48:49;;;;;;;2.10;1.90;;;13.40;99.90;;;;;;4993142;28;20458;-65
2023/09/20 04:51:17;;;;;;;2.70;1.77;;;13.30;99.90;;;;;;5005203;28;20482;-65
2023/09/20 04:53:44;;;;;;;1.27;1.17;;;13.30;99.90;;;;;;4994082;28;20645;-65
2023/09/20 04:56:10;;;;;;;2.60;1.73;;;13.40;99.90;;;;;;4993297;28;20462;-65
2023/09/20 04:58:39;;;;;;;3.90;2.07;;;13.30;99.90;;;;;;4993378;28;20526;-65
2023/09/20 05:01:11;;;;;;;1.80;1.67;;;13.30;99.90;;;;;;4993355;28;20517;-65
2023/09/20 05:03:39;;;;;;;2.17;1.63;;;13.40;99.90;;;;;;4992602;28;20462;-65
2023/09/20 05:06:06;;;;;;;2.13;1.17;;;13.40;99.90;;;;;;4993209;28;20522;-65
2023/09/20 05:08:33;;;;;;;2.07;1.60;;;13.40;99.90;;;;;;4993160;28;20768;-65
2023/09/20 05:11:00;;;;;;;1.97;1.77;;;13.40;99.90;;;;;;4994287;28;20513;-65
2023/09/20 05:13:26;;;;;;;2.50;1.70;;;13.40;99.90;;;;;;5009555;28;20468;-65
2023/09/20 05:15:55;;;;;;;1.70;1.53;;;13.40;99.90;;;;;;4993224;28;20485;-65
2023/09/20 05:18:22;;;;;;;1.97;1.53;;;13.40;99.90;;;;;;4993043;28;20513;-65
2023/09/20 05:20:49;;;;;;;2.20;1.80;;;13.40;99.90;;;;;;4992729;28;20797;-65
2023/09/20 05:23:16;;;;;;;1.50;1.40;;;13.40;99.90;;;;;;5004093;28;20462;-65
2023/09/20 05:25:43;;;;;;;2.50;1.67;;;13.40;99.90;;;;;;4994134;28;20576;-65
2023/09/20 05:28:10;;;;;;;1.90;1.40;;;13.40;99.90;;;;;;4992860;28;20462;-65
2023/09/20 05:30:37;;;;;;;1.77;1.40;;;13.40;99.90;;;;;;4992447;28;20486;-64
2023/09/20 05:33:07;;;;;;;1.87;1.63;;;13.40;99.90;;;;;;5001821;28;20469;-65
2023/09/20 05:35:34;;;;;;;2.33;1.53;;;13.40;99.90;;;;;;4995246;28;20470;-65
2023/09/20 05:38:01;;;;;;;2.53;2.23;;;13.40;99.90;;;;;;4993373;28;20524;-65
2023/09/20 05:40:28;;;;;;;3.20;1.63;;;13.40;99.90;;;;;;5004048;28;20466;-65
2023/09/20 05:42:55;;;;;;;1.60;1.50;;;13.50;99.90;;;;;;4990973;28;20553;-65
2023/09/20 05:45:23;;;;;;;1.87;1.20;;;13.50;99.90;;;;;;4992184;28;20462;-65
2023/09/20 05:47:50;;;;;;;1.50;1.40;;;13.50;99.90;;;;;;4991710;28;20521;-65
2023/09/20 05:50:22;;;;;;;2.67;2.43;;;13.50;99.90;;;;;;5003774;28;20464;-65
2023/09/20 05:52:52;;;;;;;1.70;1.60;;;13.60;99.90;;;;;;4992718;28;20462;-65
2023/09/20 05:55:19;;;;;;;2.80;1.77;;;13.70;99.90;;;;;;5001660;28;20897;-65
2023/09/20 05:57:46;;;;;;;3.23;1.97;;;13.70;99.90;;;;;;5006465;28;20950;-65
2023/09/20 06:00:21;;;;;;;2.07;1.67;;;13.80;99.90;;;;;;4998141;28;20502;-65
2023/09/20 06:02:49;;;;;;;1.90;1.67;;;13.80;99.90;;;;;;5005061;28;20895;-65
2023/09/20 06:05:18;;;;;;;3.40;1.70;;;13.90;99.90;;;;;;5003243;28;20461;-65
2023/09/20 06:07:46;;;;;;;3.43;1.70;;;13.80;99.90;;;;;;4993467;28;20483;-65
2023/09/20 06:10:14;;;;;;;3.67;2.10;;;13.90;99.90;;;;;;4992702;28;20523;-65
2023/09/20 06:12:41;;;;;;;2.40;2.20;;;14.00;99.90;;;;;;4991782;28;20467;-65
2023/09/20 06:15:13;;;;;;;1.63;1.50;;;14.00;99.90;;;;;;4992209;28;20462;-65
2023/09/20 06:17:40;;;;;;;1.80;1.50;;;14.00;99.90;;;;;;4991614;28;20469;-65
2023/09/20 06:20:09;;;;;;;1.40;1.30;;;14.10;99.90;;;;;;4992114;28;20906;-65
2023/09/20 06:22:37;;;;;;;2.23;1.87;;;14.10;99.90;;;;;;4991868;28;20489;-65
2023/09/20 06:25:05;;;;;;;1.70;1.60;;;14.20;99.90;;;;;;4992032;28;20473;-64
2023/09/20 06:27:32;;;;;;;1.60;1.50;;;14.30;99.90;;;;;;4995837;28;20486;-66
2023/09/20 06:29:59;;;;;;;1.53;1.40;;;14.40;99.90;;;;;;5010053;28;20469;-66
2023/09/20 06:32:26;;;;;;;2.47;1.20;;;14.50;99.90;;;;;;4995647;28;20526;-65
2023/09/20 06:34:53;;;;;;;1.40;1.30;;;14.60;99.90;;;;;;5003758;28;20515;-66
2023/09/20 06:37:20;;;;;;;2.73;1.70;;;14.70;99.90;;;;;;5001736;28;20721;-65
2023/09/20 06:39:49;;;;;;;2.10;1.27;;;14.80;99.90;;;;;;4995670;28;20459;-65
2023/09/20 06:42:15;;;;;;;2.90;1.73;;;14.90;99.90;;;;;;5005635;28;20497;-65
2023/09/20 06:44:44;;;;;;;1.23;1.13;;;14.90;99.90;;;;;;5013192;28;20481;-65
2023/09/20 06:47:11;;;;;;;1.80;1.40;;;15.00;99.90;;;;;;5002439;28;20491;-65
2023/09/20 06:49:38;;;;;;;2.10;1.73;;;15.10;99.90;;;;;;4995644;28;20464;-65
2023/09/20 06:52:05;;;;;;;1.60;1.50;;;15.10;99.90;;;;;;4995363;28;20846;-65
2023/09/20 06:54:33;;;;;;;1.67;1.57;;;15.20;99.90;;;;;;4995010;28;20463;-65
2023/09/20 06:57:03;;;;;;;4.73;2.00;;;15.30;99.90;;;;;;5002967;28;20530;-65
2023/09/20 06:59:31;;;;;;;1.70;1.40;;;15.40;99.90;;;;;;5008579;28;20496;-66
2023/09/20 07:01:58;;;;;;;1.50;1.40;;;15.50;99.90;;;;;;4995392;28;20841;-65
2023/09/20 07:04:25;;;;;;;3.60;1.53;;;15.50;99.90;;;;;;4999406;28;20978;-65
2023/09/20 07:06:53;;;;;;;1.87;1.67;;;15.60;99.90;;;;;;5011055;28;20494;-65
2023/09/20 07:09:20;;;;;;;1.93;1.60;;;15.60;99.90;;;;;;5001010;28;20468;-65
2023/09/20 07:11:48;;;;;;;1.53;1.40;;;15.60;99.90;;;;;;4994478;28;20671;-65
2023/09/20 07:14:20;;;;;;;1.57;1.43;;;15.70;99.90;;;;;;4994346;28;20473;-65
2023/09/20 07:16:47;;;;;;;1.90;1.60;;;15.80;99.90;;;;;;4994541;28;20477;-65
2023/09/20 07:19:17;;;;;;;1.47;1.20;;;15.90;99.90;;;;;;5006236;28;20550;-65
2023/09/20 07:21:44;;;;;;;1.80;1.30;;;16.00;99.90;;;;;;4997503;28;20541;-65
2023/09/20 07:24:12;;;;;;;1.70;1.37;;;16.10;99.90;;;;;;4994239;28;20858;-65
2023/09/20 07:26:39;;;;;;;2.00;1.40;;;16.30;99.90;;;;;;5009188;28;20840;-65
2023/09/20 07:29:06;;;;;;;2.00;1.73;;;16.40;99.90;;;;;;4994270;28;20471;-65
2023/09/20 07:31:36;;;;;;;2.00;1.60;;;16.60;99.90;;;;;;5000330;28;20496;-66
2023/09/20 07:34:04;;;;;;;2.13;1.93;;;16.70;99.90;;;;;;5002162;28;20469;-66
2023/09/20 07:36:34;;;;;;;2.13;1.93;;;16.90;99.90;;;;;;5007126;28;20474;-65
2023/09/20 07:39:05;;;;;;;1.80;1.50;;;17.20;99.90;;;;;;4994599;28;20901;-66
2023/09/20 07:41:32;;;;;;;2.33;1.53;;;17.50;99.90;;;;;;4994330;28;20481;-66
2023/09/20 07:43:58;;;;;;;1.57;1.10;;;17.70;99.90;;;;;;4993507;28;20468;-66
2023/09/20 07:46:25;;;;;;;2.10;1.90;;;17.80;99.90;;;;;;4994258;28;20566;-65
2023/09/20 07:48:53;;;;;;;2.20;1.47;;;18.00;99.90;;;;;;4994260;28;20875;-66
2023/09/20 07:51:24;;;;;;;1.80;1.70;;;18.20;99.90;;;;;;4994382;28;20526;-66
2023/09/20 07:53:53;;;;;;;2.30;1.20;;;18.40;99.90;;;;;;4993101;28;20467;-66
2023/09/20 07:56:20;;;;;;;3.10;1.43;;;18.60;99.90;;;;;;4994258;28;20461;-66
2023/09/20 07:58:47;;;;;;;1.70;1.30;;;18.80;99.90;;;;;;4993602;28;20970;-66
2023/09/20 08:01:17;;;;;;;2.70;1.77;;;19.00;99.90;;;;;;4997165;28;20836;-67
2023/09/20 08:03:50;;;;;;;1.70;1.60;;;19.20;99.90;;;;;;5004900;28;20470;-66
2023/09/20 08:06:18;;;;;;;1.60;1.30;;;19.40;99.90;;;;;;4993705;28;20891;-67
2023/09/20 08:08:46;;;;;;;1.47;1.33;;;19.70;99.90;;;;;;4993588;28;20485;-66
2023/09/20 08:11:13;;;;;;;1.73;1.43;;;19.80;99.90;;;;;;5009014;28;21023;-67
2023/09/20 08:13:40;;;;;;;1.87;1.50;;;19.80;99.90;;;;;;4992980;28;20469;-67
2023/09/20 08:16:09;;;;;;;2.13;1.20;;;19.90;99.90;;;;;;4993078;28;20462;-66
2023/09/20 08:21:21;;;;;;;2.37;1.67;;;19.90;99.90;;;;;;5004983;28;20565;-67
2023/09/20 08:59:51;;;;;;;2.43;1.40;;;21.30;99.90;;;;;;5006788;28;20476;-67
2023/09/20 09:02:19;;;;;;;1.40;1.27;;;21.40;99.90;;;;;;5004206;28;20523;-66
2023/09/20 09:04:47;;;;;;;1.87;1.60;;;21.50;99.90;;;;;;4996287;28;20492;-66
2023/09/20 09:07:14;;;;;;;1.50;1.40;;;21.60;99.90;;;;;;5000137;28;20588;-67
2023/09/20 09:09:43;;;;;;;2.20;1.60;;;21.70;99.90;;;;;;4999224;28;20472;-67
2023/09/20 09:12:10;;;;;;;3.13;1.40;;;21.90;99.90;;;;;;4992800;28;20491;-66
2023/09/20 09:14:39;;;;;;;2.93;1.70;;;22.10;99.90;;;;;;5000228;28;20468;-67
2023/09/20 09:17:07;;;;;;;2.50;1.70;;;22.20;99.90;;;;;;4993900;28;20548;-67
2023/09/20 09:19:34;;;;;;;4.40;1.73;;;22.20;99.90;;;;;;4998076;28;20465;-66
2023/09/20 09:22:02;;;;;;;3.70;1.60;;;22.20;99.90;;;;;;5000041;28;20493;-67
2023/09/20 09:24:41;;;;;;;1.63;1.53;;;22.10;99.90;;;;;;4991832;28;20462;-66
2023/09/20 09:27:09;;;;;;;1.90;1.73;;;22.00;99.90;;;;;;4991642;28;20482;-67
2023/09/20 09:29:36;;;;;;;2.23;2.03;;;22.10;99.90;;;;;;4992061;28;20465;-67
2023/09/20 09:32:04;;;;;;;2.27;1.40;;;22.20;99.90;;;;;;4999776;28;20489;-66
2023/09/20 09:34:31;;;;;;;1.60;1.33;;;22.30;99.90;;;;;;4991721;28;20461;-67
2023/09/20 09:36:58;;;;;;;1.47;1.33;;;22.50;99.90;;;;;;4991631;28;20887;-67
2023/09/20 09:39:25;;;;;;;1.93;1.37;;;22.60;99.90;;;;;;4991780;28;20469;-66
2023/09/20 09:41:52;;;;;;;1.67;1.30;;;22.60;99.90;;;;;;4991865;28;20510;-66
2023/09/20 09:44:21;;;;;;;1.83;1.63;;;22.50;99.90;;;;;;4991221;28;20468;-66
2023/09/20 09:46:49;;;;;;;1.50;1.40;;;22.60;99.90;;;;;;4991863;28;20512;-66
2023/09/20 09:49:19;;;;;;;2.57;1.40;;;22.80;99.90;;;;;;4991364;28;20473;-67
2023/09/20 09:51:50;;;;;;;1.83;1.70;;;23.10;99.90;;;;;;5000428;28;20482;-67
2023/09/20 09:54:18;;;;;;;1.53;1.43;;;23.30;99.90;;;;;;4999630;28;20458;-67
2023/09/20 09:56:45;;;;;;;2.43;1.67;;;23.30;99.90;;;;;;4991765;28;20459;-67
2023/09/20 09:59:12;;;;;;;1.23;1.10;;;23.20;99.90;;;;;;4991011;28;20869;-67
2023/09/20 10:01:41;;;;;;;1.83;1.60;;;23.20;99.90;;;;;;4991128;28;20485;-67
2023/09/20 10:04:10;;;;;;;1.70;1.60;;;23.00;99.90;;;;;;4990648;28;20534;-67
2023/09/20 10:06:44;;;;;;;1.77;1.60;;;23.00;99.90;;;;;;4991701;28;20463;-67
2023/09/20 10:09:12;;;;;;;2.43;1.57;;;23.10;99.90;;;;;;4991326;28;21285;-67
2023/09/20 10:11:41;;;;;;;1.90;1.67;;;23.10;99.90;;;;;;4991717;28;20572;-66
2023/09/20 10:14:10;;;;;;;2.10;1.90;;;23.20;99.90;;;;;;4990801;28;20807;-66
2023/09/20 10:16:39;;;;;;;2.37;1.70;;;23.30;99.90;;;;;;4991637;28;20549;-66
2023/09/20 10:19:13;;;;;;;2.20;2.00;;;23.20;99.90;;;;;;4991065;28;20962;-67
2023/09/20 10:21:59;;;;;;;3.57;1.40;;;23.30;99.90;;;;;;5000272;28;20994;-66
2023/09/20 10:24:28;;;;;;;1.57;1.40;;;23.30;99.90;;;;;;5000007;28;20457;-66
2023/09/20 10:26:57;;;;;;;3.10;2.13;;;23.30;99.90;;;;;;4991207;28;20466;-66
2023/09/20 10:29:28;;;;;;;4.07;2.17;;;23.30;99.90;;;;;;5000373;28;20524;-66
2023/09/20 10:31:54;;;;;;;2.00;1.77;;;23.30;99.90;;;;;;4991141;28;20493;-66
2023/09/20 10:34:24;;;;;;;1.53;1.43;;;23.50;99.90;;;;;;4990405;28;20505;-66
2023/09/20 10:36:52;;;;;;;1.77;1.60;;;23.80;99.90;;;;;;4991552;28;20822;-67
2023/09/20 10:39:23;;;;;;;3.33;2.27;;;23.90;99.90;;;;;;5000133;28;20470;-66
2023/09/20 10:41:52;;;;;;;2.13;1.73;;;23.90;99.90;;;;;;4991320;28;20478;-67
2023/09/20 10:44:28;;;;;;;2.50;1.90;;;24.00;99.90;;;;;;4999857;28;20476;-66
2023/09/20 10:46:55;;;;;;;3.00;1.77;;;24.10;99.90;;;;;;4991210;28;20902;-66
2023/09/20 10:49:41;;;;;;;2.13;1.93;;;24.40;99.90;;;;;;4990722;28;20465;-66
2023/09/20 10:52:08;;;;;;;1.83;1.70;;;24.70;99.90;;;;;;4990825;28;20567;-67
2023/09/20 10:54:36;;;;;;;1.60;1.43;;;24.90;99.90;;;;;;4990987;28;20462;-66
2023/09/20 10:57:09;;;;;;;1.97;1.77;;;25.20;99.90;;;;;;4991016;28;20470;-67
2023/09/20 10:59:37;;;;;;;2.00;1.70;;;25.30;99.90;;;;;;4991448;28;20458;-67
2023/09/20 11:02:16;;;;;;;2.40;1.63;;;25.40;99.90;;;;;;4992080;28;20484;-67
2023/09/20 11:04:46;;;;;;;2.33;1.97;;;25.50;99.90;;;;;;5000477;28;20893;-67
2023/09/20 11:07:14;;;;;;;1.80;1.70;;;25.60;99.90;;;;;;4990627;28;20498;-67
2023/09/20 11:09:42;;;;;;;2.50;2.00;;;25.80;99.90;;;;;;4991100;28;20548;-67
2023/09/20 11:12:11;;;;;;;2.57;1.80;;;25.90;99.90;;;;;;4992621;28;20949;-67
2023/09/20 11:14:41;;;;;;;2.17;1.63;;;26.00;99.90;;;;;;4994319;28;20505;-67
2023/09/20 11:17:08;;;;;;;3.40;1.83;;;26.10;99.90;;;;;;4994290;28;20486;-67
2023/09/20 11:19:38;;;;;;;2.17;1.87;;;26.10;99.90;;;;;;5004138;28;20462;-67
2023/09/20 11:22:06;;;;;;;2.53;1.93;;;26.10;99.90;;;;;;5003840;28;20481;-67
2023/09/20 11:24:36;;;;;;;2.10;1.90;;;26.20;99.90;;;;;;4994309;28;20462;-67
2023/09/20 11:27:03;;;;;;;3.10;2.00;;;26.30;99.90;;;;;;4994668;28;20829;-67
2023/09/20 11:29:31;;;;;;;1.70;1.30;;;26.40;99.90;;;;;;5004230;28;20528;-67
2023/09/20 11:31:58;;;;;;;1.40;1.30;;;26.40;99.90;;;;;;4994154;28;20501;-67
2023/09/20 11:34:28;;;;;;;1.40;1.30;;;26.50;99.90;;;;;;4993587;28;20486;-67
2023/09/20 11:36:57;;;;;;;1.97;1.77;;;26.50;99.90;;;;;;4994325;28;21025;-67
2023/09/20 11:39:29;;;;;;;1.83;1.67;;;26.60;99.90;;;;;;4993860;28;20458;-67
2023/09/20 11:42:03;;;;;;;1.53;1.43;;;26.50;99.90;;;;;;4994108;28;20478;-67
2023/09/20 11:44:34;;;;;;;2.23;1.60;;;26.50;99.90;;;;;;4993714;28;20455;-67
2023/09/20 11:47:03;;;;;;;1.90;1.60;;;26.60;99.90;;;;;;4994190;28;20462;-67
2023/09/20 11:49:30;;;;;;;1.60;1.50;;;26.60;99.90;;;;;;4993563;28;20556;-67
2023/09/20 11:51:57;;;;;;;1.60;1.20;;;26.80;99.90;;;;;;4993952;28;20489;-67
2023/09/20 11:54:31;;;;;;;1.53;1.43;;;26.90;99.90;;;;;;4993204;28;20470;-67
2023/09/20 11:57:00;;;;;;;1.20;1.10;;;26.80;99.90;;;;;;4994260;28;20886;-67
2023/09/20 11:59:27;;;;;;;1.83;1.20;;;26.70;99.90;;;;;;5003883;28;20473;-67
2023/09/20 12:01:54;;;;;;;1.50;1.40;;;26.80;99.90;;;;;;4993751;28;20489;-67
2023/09/20 12:04:21;;;;;;;1.80;1.57;;;26.90;99.90;;;;;;4992862;28;20463;-67
2023/09/20 12:06:50;;;;;;;1.60;1.50;;;27.00;99.90;;;;;;4993855;28;20470;-67
2023/09/20 12:09:17;;;;;;;1.33;1.23;;;27.20;99.90;;;;;;5003666;28;20540;-67
2023/09/20 12:11:45;;;;;;;1.63;1.53;;;27.40;99.90;;;;;;4993599;28;20486;-67
2023/09/20 12:14:13;;;;;;;1.43;1.33;;;27.50;99.90;;;;;;4992736;28;20525;-66
2023/09/20 12:16:41;;;;;;;1.50;1.10;;;27.30;99.90;;;;;;5004080;28;20458;-66
2023/09/20 12:19:08;;;;;;;1.70;1.13;;;27.20;99.90;;;;;;5003699;28;20469;-67
2023/09/20 12:21:35;;;;;;;1.30;1.20;;;27.20;99.90;;;;;;5001641;28;20574;-67
2023/09/20 12:24:01;;;;;;;1.20;1.10;;;27.30;99.90;;;;;;4996568;28;20582;-67
2023/09/20 12:26:28;;;;;;;1.50;1.37;;;27.40;99.90;;;;;;4992948;28;20463;-67
2023/09/20 12:28:56;;;;;;;1.23;1.13;;;27.60;99.90;;;;;;5003920;28;20486;-67
2023/09/20 12:31:25;;;;;;;1.37;1.23;;;27.70;99.90;;;;;;4992849;28;20494;-67
2023/09/20 12:33:52;;;;;;;1.33;1.23;;;27.70;99.90;;;;;;4992735;28;20474;-67
2023/09/20 12:36:23;;;;;;;1.30;1.17;;;27.60;99.90;;;;;;4992749;28;20557;-67
2023/09/20 12:38:50;;;;;;;1.70;1.47;;;27.70;99.90;;;;;;4993247;28;20459;-67
2023/09/20 12:41:17;;;;;;;1.30;1.10;;;27.80;99.90;;;;;;5003473;28;21035;-67
2023/09/20 12:43:44;;;;;;;1.70;1.50;;;27.80;99.90;;;;;;4992515;28;20454;-66
2023/09/20 12:46:12;;;;;;;1.60;1.47;;;27.80;99.80;;;;;;4993094;28;20470;-66
2023/09/20 12:48:39;;;;;;;1.23;1.13;;;27.80;99.90;;;;;;5003720;28;20482;-66
2023/09/20 12:51:07;;;;;;;1.20;1.10;;;27.70;99.90;;;;;;4992862;28;21049;-67
2023/09/20 12:53:34;;;;;;;1.47;1.17;;;27.70;99.90;;;;;;4992082;28;20469;-66
2023/09/20 12:56:04;;;;;;;1.70;1.37;;;27.80;99.90;;;;;;4993105;28;20472;-66
2023/09/20 12:58:30;;;;;;;1.10;1.00;;;27.90;99.90;;;;;;4992579;28;20521;-66
2023/09/20 13:00:57;;;;;;;1.17;1.07;;;27.90;99.90;;;;;;4992699;28;20486;-66
2023/09/20 13:03:28;;;;;;;2.10;1.50;;;27.80;98.30;;;;;;4991947;28;20462;-66
2023/09/20 13:05:55;;;;;;;1.50;1.33;;;27.80;99.90;;;;;;4992621;28;20466;-66
2023/09/20 13:08:25;;;;;;;2.10;1.20;;;27.80;99.50;;;;;;4996386;28;20485;-67
2023/09/20 13:10:52;;;;;;;1.50;1.10;;;27.80;99.90;;;;;;4998853;28;20482;-66
2023/09/20 13:13:19;;;;;;;1.20;1.10;;;27.70;99.50;;;;;;4995720;28;20457;-67
2023/09/20 13:15:45;;;;;;;1.37;1.20;;;27.80;99.90;;;;;;5000414;28;20521;-66
2023/09/20 13:18:12;;;;;;;1.57;1.20;;;27.80;99.70;;;;;;4992544;28;20462;-66
2023/09/20 13:20:42;;;;;;;1.87;1.37;;;27.90;97.60;;;;;;5003564;28;20545;-66
2023/09/20 13:23:08;;;;;;;1.63;1.20;;;27.80;96.60;;;;;;4991843;28;20469;-66
2023/09/20 13:25:35;;;;;;;1.67;1.27;;;27.60;98.20;;;;;;4992021;28;20529;-67
2023/09/20 13:28:02;;;;;;;1.67;1.57;;;27.50;98.50;;;;;;4993795;28;20493;-66
2023/09/20 13:30:29;;;;;;;1.60;1.30;;;27.50;98.50;;;;;;5001430;28;20837;-66
2023/09/20 13:32:56;;;;;;;1.20;1.10;;;27.50;99.60;;;;;;5002896;28;20985;-66
2023/09/20 13:35:23;;;;;;;1.43;1.30;;;27.60;98.40;;;;;;4991043;28;20462;-66
2023/09/20 13:37:53;;;;;;;1.20;1.10;;;27.60;99.50;;;;;;4992474;28;20969;-66
2023/09/20 13:40:21;;;;;;;1.20;1.10;;;27.80;98.40;;;;;;4999052;28;20453;-67
2023/09/20 13:42:48;;;;;;;1.10;1.00;;;27.90;99.20;;;;;;4999234;28;20465;-66
2023/09/20 13:45:19;;;;;;;1.50;1.40;;;27.90;98.60;;;;;;4991644;28;20467;-66
2023/09/20 13:47:49;;;;;;;1.63;1.10;;;27.90;99.80;;;;;;4992011;28;20878;-66
2023/09/20 13:50:16;;;;;;;1.43;1.33;;;27.80;99.00;;;;;;4992033;28;20470;-66
2023/09/20 13:52:44;;;;;;;1.20;1.10;;;27.80;99.30;;;;;;4991950;28;20458;-66
2023/09/20 13:55:14;;;;;;;2.13;1.60;;;27.60;98.00;;;;;;5002543;28;20823;-66
2023/09/20 13:57:41;;;;;;;1.70;1.23;;;27.60;98.20;;;;;;5003859;28;20896;-66
2023/09/20 14:00:12;;;;;;;1.47;1.13;;;27.50;99.80;;;;;;4992102;28;20465;-66
2023/09/20 14:02:40;;;;;;;1.00;0.90;;;27.50;99.70;;;;;;4991776;28;20470;-66
2023/09/20 14:05:14;;;;;;;2.10;1.27;;;27.50;97.90;;;;;;4991349;28;20465;-67
2023/09/20 14:07:41;;;;;;;1.40;1.10;;;27.40;97.70;;;;;;4991608;28;20462;-66
2023/09/20 14:10:09;;;;;;;1.40;1.30;;;27.30;98.70;;;;;;4993967;28;20482;-67
2023/09/20 14:12:38;;;;;;;1.33;1.23;;;27.40;99.90;;;;;;5000342;28;20482;-66
2023/09/20 14:15:07;;;;;;;1.60;1.50;;;27.40;99.40;;;;;;4991302;28;20469;-66
2023/09/20 14:17:34;;;;;;;1.40;1.20;;;27.50;99.40;;;;;;4995258;28;20465;-67
2023/09/20 14:20:05;;;;;;;2.00;1.40;;;27.60;98.90;;;;;;5003982;28;20469;-66
2023/09/20 14:22:32;;;;;;;1.57;1.40;;;27.60;99.90;;;;;;4991322;28;20573;-66
2023/09/20 14:24:59;;;;;;;1.87;1.20;;;27.50;99.40;;;;;;5000399;28;20461;-66
2023/09/20 14:27:26;;;;;;;1.33;1.07;;;27.50;97.40;;;;;;4993799;28;20465;-66
2023/09/20 14:29:54;;;;;;;1.20;1.03;;;27.50;98.60;;;;;;4991483;28;20489;-66
2023/09/20 14:32:22;;;;;;;1.20;1.10;;;27.30;97.30;;;;;;4991092;28;20521;-66
2023/09/20 14:34:50;;;;;;;1.93;1.13;;;27.20;98.50;;;;;;4991045;28;20458;-66
2023/09/20 14:37:16;;;;;;;1.20;1.10;;;27.20;97.70;;;;;;5003060;28;20544;-67
2023/09/20 14:39:43;;;;;;;1.30;1.20;;;27.10;98.70;;;;;;4991440;28;20465;-66
2023/09/20 14:42:10;;;;;;;1.40;1.10;;;27.20;99.90;;;;;;4991279;28;20854;-66
2023/09/20 14:44:37;;;;;;;1.63;1.50;;;27.20;99.90;;;;;;4990811;28;20462;-67
2023/09/20 14:47:05;;;;;;;1.40;1.30;;;27.20;98.30;;;;;;4993806;28;20853;-66
2023/09/20 14:49:32;;;;;;;1.70;1.30;;;27.10;97.70;;;;;;5000562;28;20911;-66
2023/09/20 14:52:01;;;;;;;1.27;1.10;;;26.90;99.10;;;;;;5001642;28;20482;-66
2023/09/20 14:54:28;;;;;;;1.20;1.10;;;26.90;98.90;;;;;;4994685;28;20458;-66
2023/09/20 14:56:56;;;;;;;1.47;1.20;;;26.90;98.40;;;;;;5007561;28;20498;-66
2023/09/20 14:59:23;;;;;;;1.30;1.13;;;26.90;99.40;;;;;;5002427;28;20461;-67
2023/09/20 15:01:50;;;;;;;1.40;1.17;;;26.90;98.70;;;;;;5003782;28;20478;-67
2023/09/20 15:04:19;;;;;;;1.77;1.30;;;26.90;98.90;;;;;;5003131;28;20901;-66
2023/09/20 15:06:47;;;;;;;1.17;1.07;;;26.90;99.90;;;;;;4999768;28;21208;-66
2023/09/20 15:09:15;;;;;;;1.30;1.20;;;26.90;99.40;;;;;;4991919;28;20490;-66
2023/09/20 15:11:43;;;;;;;2.27;1.53;;;26.90;99.90;;;;;;5004851;28;20546;-66
2023/09/20 15:14:10;;;;;;;1.63;1.53;;;26.80;99.20;;;;;;4992224;28;20466;-66
2023/09/20 15:16:37;;;;;;;1.57;1.17;;;26.80;99.10;;;;;;4992596;28;20462;-67
2023/09/20 15:19:04;;;;;;;1.63;1.17;;;26.80;99.90;;;;;;4992675;28;20855;-66
2023/09/20 15:21:32;;;;;;;1.30;1.20;;;26.80;99.90;;;;;;4992593;28;20849;-66
2023/09/20 15:23:59;;;;;;;1.63;1.53;;;26.80;99.90;;;;;;4992112;28;20476;-67
2023/09/20 15:26:25;;;;;;;1.30;1.20;;;26.70;99.90;;;;;;4992723;28;20477;-66
2023/09/20 15:28:52;;;;;;;1.93;1.40;;;26.70;99.90;;;;;;4991930;28;20492;-66
2023/09/20 15:31:20;;;;;;;1.40;1.30;;;26.60;99.30;;;;;;4992622;28;20994;-66
2023/09/20 15:33:48;;;;;;;1.43;1.27;;;26.50;99.00;;;;;;4992405;28;20553;-66
2023/09/20 15:36:15;;;;;;;1.90;1.40;;;26.50;99.60;;;;;;4992217;28;20470;-66
2023/09/20 15:38:46;;;;;;;1.37;1.23;;;26.40;99.90;;;;;;4992223;28;20516;-66
2023/09/20 15:41:13;;;;;;;1.13;1.00;;;26.40;99.90;;;;;;4992266;28;20525;-66
2023/09/20 15:43:42;;;;;;;1.70;1.40;;;26.50;99.90;;;;;;4991287;28;20489;-66
2023/09/20 15:46:11;;;;;;;1.80;1.27;;;26.50;99.90;;;;;;4992083;28;20462;-66
2023/09/20 15:48:38;;;;;;;1.57;1.47;;;26.40;99.80;;;;;;4997715;28;20468;-66
2023/09/20 15:51:05;;;;;;;1.20;1.10;;;26.40;99.90;;;;;;5006230;28;20478;-67
2023/09/20 15:53:33;;;;;;;1.40;1.30;;;26.50;99.90;;;;;;4991206;28;20553;-66
2023/09/20 15:56:02;;;;;;;1.30;1.00;;;26.40;99.90;;;;;;4993306;28;20486;-66
2023/09/20 15:58:29;;;;;;;2.37;1.30;;;26.30;99.90;;;;;;5001748;28;20458;-66
2023/09/20 16:00:56;;;;;;;1.40;1.20;;;26.20;99.90;;;;;;4991483;28;20562;-66
2023/09/20 16:03:26;;;;;;;1.80;1.23;;;26.20;99.90;;;;;;4991312;28;20458;-66
2023/09/20 16:05:53;;;;;;;1.77;1.30;;;26.10;99.90;;;;;;4991369;28;20527;-66
2023/09/20 16:08:21;;;;;;;1.30;1.20;;;26.10;99.90;;;;;;4995775;28;20465;-66
2023/09/20 16:10:49;;;;;;;1.80;1.33;;;26.10;99.90;;;;;;4999907;28;20544;-66
2023/09/20 16:13:18;;;;;;;1.20;0.90;;;26.00;99.90;;;;;;4999775;28;20868;-66
2023/09/20 16:15:44;;;;;;;1.67;1.10;;;26.00;99.90;;;;;;5000312;28;20458;-66
2023/09/20 16:18:11;;;;;;;1.30;1.20;;;26.00;99.90;;;;;;4991602;28;20541;-66
2023/09/20 16:20:38;;;;;;;1.43;1.10;;;25.80;99.90;;;;;;4990979;28;20493;-66
2023/09/20 16:23:06;;;;;;;1.40;1.10;;;25.80;99.90;;;;;;4990344;28;20466;-66
2023/09/20 16:25:33;;;;;;;2.00;1.40;;;25.60;99.90;;;;;;5004479;28;20457;-66
2023/09/20 16:28:00;;;;;;;1.30;1.20;;;25.50;99.90;;;;;;4992506;28;20839;-66
2023/09/20 16:30:28;;;;;;;1.40;1.27;;;25.40;99.90;;;;;;5002994;28;20490;-66
2023/09/20 16:32:55;;;;;;;2.20;1.40;;;25.30;99.90;;;;;;4990534;28;20994;-66
2023/09/20 16:35:22;;;;;;;1.60;1.50;;;25.20;99.90;;;;;;4995110;28;21043;-66
2023/09/20 16:37:49;;;;;;;1.40;1.30;;;25.00;99.90;;;;;;4999001;28;20458;-66
2023/09/20 16:40:16;;;;;;;1.80;1.30;;;24.70;99.90;;;;;;4990498;28;20978;-66
2023/09/20 16:42:43;;;;;;;1.73;1.37;;;24.40;99.90;;;;;;4990135;28;20501;-66
2023/09/20 16:45:12;;;;;;;2.60;1.30;;;24.30;99.90;;;;;;5003511;28;20462;-66
2023/09/20 16:47:40;;;;;;;1.43;1.33;;;24.00;99.90;;;;;;4989942;28;20597;-66
2023/09/20 16:50:08;;;;;;;1.93;1.77;;;23.80;99.90;;;;;;5003634;28;21006;-67
2023/09/20 16:52:35;;;;;;;1.30;1.20;;;23.50;99.90;;;;;;4989282;28;20887;-66
2023/09/20 16:55:02;;;;;;;1.60;1.50;;;23.30;99.90;;;;;;4991182;28;20857;-66
2023/09/20 16:57:29;;;;;;;1.70;1.50;;;23.10;99.90;;;;;;5002406;28;20454;-66
2023/09/20 16:59:56;;;;;;;1.50;1.40;;;22.90;99.90;;;;;;4989315;28;20470;-66
2023/09/20 17:02:23;;;;;;;1.77;1.17;;;22.70;99.90;;;;;;4989587;28;20486;-66